createdAt,value
2018-12-06T00:00:12.604Z,8.77
2018-12-06T00:02:41.659Z,8.55
2018-12-06T00:05:11.674Z,8.37
2018-12-06T00:07:50.554Z,9.40
2018-12-06T00:10:19.368Z,9.20
2018-12-06T00:12:48.187Z,8.77
2018-12-06T00:15:32.859Z,10.07
2018-12-06T00:18:01.783Z,8.20
2018-12-06T00:20:30.749Z,11.23
2018-12-06T00:22:59.759Z,8.17
2018-12-06T00:25:29.210Z,8.10
2018-12-06T00:27:58.133Z,7.67
2018-12-06T00:30:38.539Z,9.55
2018-12-06T00:33:08.746Z,7.57
2018-12-06T00:35:37.669Z,8.70
2018-12-06T00:38:06.673Z,9.47
2018-12-06T00:40:37.703Z,8.87
2018-12-06T00:43:06.550Z,9.30
2018-12-06T00:45:35.541Z,9.83
2018-12-06T00:48:05.521Z,10.72
2018-12-06T00:50:34.387Z,9.63
2018-12-06T00:58:08.316Z,9.83
2018-12-06T01:00:37.113Z,10.50
2018-12-06T01:03:05.967Z,8.67
2018-12-06T01:05:35.151Z,8.53
2018-12-06T01:08:04.255Z,7.37
2018-12-06T01:10:33.341Z,8.73
2018-12-06T01:13:02.212Z,9.17
2018-12-06T01:15:31.183Z,9.97
2018-12-06T01:18:00.062Z,7.80
2018-12-06T01:20:28.907Z,8.13
2018-12-06T01:22:57.900Z,6.60
2018-12-06T01:25:26.812Z,12.93
2018-12-06T01:27:55.777Z,10.20
2018-12-06T01:30:24.777Z,10.40
2018-12-06T01:32:53.648Z,7.00
2018-12-06T01:35:22.527Z,8.27
2018-12-06T01:37:51.532Z,9.65
2018-12-06T01:40:20.415Z,9.33
2018-12-06T01:42:49.421Z,8.20
2018-12-06T01:45:18.265Z,9.87
2018-12-06T01:47:47.211Z,8.87
2018-12-06T01:50:16.053Z,9.17
2018-12-06T01:52:44.983Z,9.50
2018-12-06T01:55:13.847Z,8.93
2018-12-06T01:57:42.794Z,8.90
2018-12-06T02:00:14.524Z,10.15
2018-12-06T02:02:43.605Z,8.47
2018-12-06T02:05:12.597Z,8.17
2018-12-06T02:07:41.470Z,12.37
2018-12-06T02:10:10.440Z,7.60
2018-12-06T02:12:40.303Z,8.90
2018-12-06T02:15:09.272Z,8.73
2018-12-06T02:17:38.142Z,9.67
2018-12-06T02:20:07.294Z,8.73
2018-12-06T02:22:36.243Z,8.80
2018-12-06T02:25:05.204Z,9.10
2018-12-06T02:27:34.108Z,9.03
2018-12-06T02:30:03.364Z,6.43
2018-12-06T02:32:32.374Z,9.83
2018-12-06T02:35:01.442Z,9.60
2018-12-06T02:37:30.790Z,9.27
2018-12-06T02:39:59.694Z,8.53
2018-12-06T02:42:28.592Z,10.43
2018-12-06T02:44:57.599Z,10.43
2018-12-06T02:47:26.565Z,10.00
2018-12-06T02:49:55.502Z,14.10
2018-12-06T02:52:24.546Z,10.08
2018-12-06T02:54:53.433Z,9.00
2018-12-06T02:57:22.390Z,10.80
2018-12-06T02:59:52.427Z,13.43
2018-12-06T03:02:21.234Z,11.18
2018-12-06T03:04:50.182Z,11.13
2018-12-06T03:07:19.008Z,12.93
2018-12-06T03:09:47.824Z,11.57
2018-12-06T03:12:16.664Z,9.93
2018-12-06T03:14:45.565Z,10.53
2018-12-06T03:17:16.407Z,10.03
2018-12-06T03:19:45.345Z,12.57
2018-12-06T03:22:14.290Z,12.03
2018-12-06T03:24:43.168Z,10.70
2018-12-06T03:27:12.003Z,10.95
2018-12-06T03:29:40.911Z,12.03
2018-12-06T03:32:11.331Z,12.63
2018-12-06T03:34:40.165Z,11.67
2018-12-06T03:37:09.000Z,12.53
2018-12-06T03:39:37.823Z,9.80
2018-12-06T03:42:06.675Z,11.97
2018-12-06T03:45:42.921Z,10.98
2018-12-06T03:48:12.719Z,9.63
2018-12-06T03:50:41.641Z,9.00
2018-12-06T03:53:10.553Z,10.90
2018-12-06T03:55:39.381Z,11.03
2018-12-06T03:58:08.211Z,10.70
2018-12-06T04:00:37.121Z,10.97
2018-12-06T04:03:05.982Z,10.03
2018-12-06T04:05:34.941Z,10.33
2018-12-06T04:08:05.010Z,9.70
2018-12-06T04:10:35.867Z,9.53
2018-12-06T04:13:04.775Z,9.00
2018-12-06T04:20:38.959Z,10.33
2018-12-06T04:23:07.785Z,9.20
2018-12-06T04:25:36.611Z,9.97
2018-12-06T04:28:05.502Z,9.13
2018-12-06T04:30:34.357Z,9.37
2018-12-06T04:33:03.282Z,11.47
2018-12-06T04:35:32.294Z,9.17
2018-12-06T04:38:01.222Z,13.37
2018-12-06T04:40:30.268Z,10.17
2018-12-06T04:42:59.163Z,9.73
2018-12-06T04:45:28.497Z,9.83
2018-12-06T04:47:57.385Z,7.87
2018-12-06T04:50:26.203Z,9.23
2018-12-06T04:52:55.080Z,9.40
2018-12-06T04:55:23.946Z,9.97
2018-12-06T04:57:52.889Z,10.53
2018-12-06T05:00:21.792Z,11.47
2018-12-06T05:02:51.084Z,9.63
2018-12-06T05:05:20.027Z,11.25
2018-12-06T05:07:48.931Z,11.57
2018-12-06T05:10:18.119Z,9.13
2018-12-06T05:12:47.177Z,10.40
2018-12-06T05:15:16.294Z,11.80
2018-12-06T05:17:45.301Z,10.10
2018-12-06T05:20:14.400Z,11.03
2018-12-06T05:22:43.523Z,11.70
2018-12-06T05:25:12.477Z,11.27
2018-12-06T05:27:41.592Z,12.27
2018-12-06T05:30:10.636Z,11.60
2018-12-06T05:32:39.521Z,12.23
2018-12-06T05:35:08.517Z,12.70
2018-12-06T05:37:40.324Z,10.57
2018-12-06T05:40:09.419Z,10.77
2018-12-06T05:42:39.093Z,10.27
2018-12-06T05:45:08.112Z,11.03
2018-12-06T05:47:37.118Z,12.00
2018-12-06T05:50:07.149Z,12.30
2018-12-06T05:52:36.987Z,12.43
2018-12-06T05:55:05.982Z,12.20
2018-12-06T05:57:34.853Z,13.13
2018-12-06T06:00:05.274Z,11.30
2018-12-06T06:02:34.303Z,14.07
2018-12-06T06:05:06.873Z,12.37
2018-12-06T06:07:35.871Z,13.27
2018-12-06T06:10:05.297Z,11.37
2018-12-06T06:12:34.299Z,9.98
2018-12-06T06:15:03.450Z,12.03
2018-12-06T06:22:18.918Z,10.50
2018-12-06T06:24:47.700Z,10.27
2018-12-06T06:27:16.542Z,11.57
2018-12-06T06:29:45.523Z,10.77
2018-12-06T06:32:14.477Z,9.25
2018-12-06T06:34:43.502Z,11.53
2018-12-06T06:37:12.522Z,9.67
2018-12-06T06:39:41.487Z,9.87
2018-12-06T06:42:10.369Z,11.87
2018-12-06T06:44:39.364Z,11.03
2018-12-06T06:47:08.232Z,9.10
2018-12-06T06:49:37.209Z,12.00
2018-12-06T06:52:06.094Z,9.77
2018-12-06T06:54:35.078Z,7.10
2018-12-06T06:57:04.112Z,9.57
2018-12-06T06:59:33.058Z,9.13
2018-12-06T07:02:02.112Z,9.25
2018-12-06T07:04:31.089Z,9.73
2018-12-06T07:07:00.106Z,9.17
2018-12-06T07:09:29.104Z,10.90
2018-12-06T07:11:58.071Z,8.90
2018-12-06T07:14:26.869Z,9.67
2018-12-06T07:16:56.098Z,11.07
2018-12-06T07:19:25.371Z,8.37
2018-12-06T07:21:54.356Z,6.87
2018-12-06T07:24:23.529Z,6.53
2018-12-06T07:26:54.928Z,7.23
2018-12-06T07:29:23.868Z,7.33
2018-12-06T07:31:52.904Z,5.47
2018-12-06T07:34:22.769Z,6.50
2018-12-06T07:36:53.188Z,6.67
2018-12-06T07:39:22.125Z,5.77
2018-12-06T07:41:51.947Z,5.30
2018-12-06T07:44:21.181Z,6.30
2018-12-06T07:46:51.845Z,6.73
2018-12-06T07:49:20.694Z,5.97
2018-12-06T07:51:49.489Z,6.17
2018-12-06T07:54:18.471Z,7.90
2018-12-06T07:56:49.244Z,5.53
2018-12-06T07:59:18.324Z,7.20
2018-12-06T08:01:48.879Z,5.87
2018-12-06T08:04:18.455Z,6.80
2018-12-06T08:06:47.503Z,6.13
2018-12-06T08:09:16.621Z,6.27
2018-12-06T08:11:45.541Z,6.10
2018-12-06T08:14:15.068Z,6.30
2018-12-06T08:16:48.669Z,4.85
2018-12-06T08:19:17.625Z,6.50
2018-12-06T08:21:46.477Z,6.70
2018-12-06T08:24:20.691Z,5.40
2018-12-06T08:26:49.566Z,8.07
2018-12-06T08:29:22.918Z,6.30
2018-12-06T08:31:51.874Z,6.00
2018-12-06T08:34:22.942Z,7.70
2018-12-06T08:36:53.401Z,7.90
2018-12-06T08:39:22.237Z,6.90
2018-12-06T08:42:05.102Z,6.20
2018-12-06T08:44:34.079Z,8.13
2018-12-06T08:47:06.504Z,10.23
2018-12-06T08:49:35.448Z,9.87
2018-12-06T08:52:13.270Z,8.57
2018-12-06T09:00:54.863Z,9.53
2018-12-06T09:03:23.751Z,10.33
2018-12-06T09:05:52.691Z,11.00
2018-12-06T09:08:27.544Z,8.50
2018-12-06T09:10:58.948Z,10.57
2018-12-06T09:13:27.878Z,11.90
2018-12-06T09:15:56.797Z,8.90
2018-12-06T09:18:26.681Z,9.07
2018-12-06T09:21:00.750Z,14.07
2018-12-06T09:23:29.676Z,11.33
2018-12-06T09:25:58.633Z,10.93
2018-12-06T09:28:27.481Z,11.23
2018-12-06T09:31:01.842Z,13.48
2018-12-06T09:33:32.828Z,12.53
2018-12-06T09:36:01.950Z,13.15
2018-12-06T09:38:31.532Z,14.57
2018-12-06T09:41:00.582Z,15.33
2018-12-06T09:43:29.443Z,13.37
2018-12-06T09:45:58.507Z,15.00
2018-12-06T09:48:33.723Z,14.68
2018-12-06T09:51:02.727Z,13.57
2018-12-06T09:53:37.408Z,14.15
2018-12-06T09:56:06.546Z,13.43
2018-12-06T09:58:35.777Z,13.57
2018-12-06T10:01:04.802Z,12.53
2018-12-06T10:03:39.455Z,14.70
2018-12-06T10:06:09.549Z,13.70
2018-12-06T10:08:39.701Z,13.37
2018-12-06T10:11:08.683Z,15.87
2018-12-06T10:13:40.395Z,11.30
2018-12-06T10:16:10.020Z,11.53
2018-12-06T10:18:39.007Z,11.37
2018-12-06T10:21:12.518Z,13.87
2018-12-06T10:23:47.985Z,9.77
2018-12-06T10:26:16.791Z,9.67
2018-12-06T10:28:47.174Z,12.33
2018-12-06T10:31:16.410Z,12.87
2018-12-06T10:33:47.574Z,15.40
2018-12-06T10:36:18.555Z,11.63
2018-12-06T10:38:47.770Z,10.60
2018-12-06T10:41:16.644Z,11.55
2018-12-06T10:43:49.377Z,11.27
2018-12-06T10:46:20.355Z,12.17
2018-12-06T10:48:52.393Z,11.10
2018-12-06T10:51:32.568Z,10.80
2018-12-06T10:54:01.619Z,14.00
2018-12-06T10:56:33.232Z,15.07
2018-12-06T10:59:02.220Z,13.77
2018-12-06T11:01:36.570Z,13.83
2018-12-06T11:04:05.447Z,13.03
2018-12-06T11:06:34.614Z,14.73
2018-12-06T11:09:06.766Z,14.38
2018-12-06T11:11:36.452Z,14.93
2018-12-06T11:14:05.766Z,16.37
2018-12-06T11:16:34.687Z,16.23
2018-12-06T11:19:03.693Z,19.17
2018-12-06T11:21:34.664Z,17.25
2018-12-06T11:24:03.939Z,14.27
2018-12-06T11:26:34.545Z,16.45
2018-12-06T11:31:51.904Z,17.43
2018-12-06T11:34:20.967Z,18.77
2018-12-06T11:36:51.870Z,21.23
2018-12-06T11:39:20.947Z,20.97
2018-12-06T11:41:50.001Z,18.50
2018-12-06T11:44:19.012Z,20.10
2018-12-06T11:46:48.144Z,22.23
2018-12-06T11:49:19.093Z,15.57
2018-12-06T11:51:48.051Z,18.90
2018-12-06T11:54:16.956Z,16.70
2018-12-06T11:56:46.408Z,19.70
2018-12-06T11:59:21.127Z,15.27
2018-12-06T12:01:50.113Z,18.25
2018-12-06T12:04:18.973Z,19.47
2018-12-06T12:06:47.985Z,15.20
2018-12-06T12:09:16.941Z,15.90
2018-12-06T12:11:45.771Z,14.90
2018-12-06T12:14:16.708Z,15.17
2018-12-06T12:16:45.957Z,10.80
2018-12-06T12:19:14.811Z,16.43
2018-12-06T12:21:43.800Z,12.97
2018-12-06T12:24:15.228Z,15.80
2018-12-06T12:26:44.273Z,13.50
2018-12-06T12:29:13.165Z,22.87
2018-12-06T12:31:43.324Z,11.15
2018-12-06T12:34:12.422Z,12.03
2018-12-06T12:36:41.741Z,12.83
2018-12-06T12:39:10.657Z,12.13
2018-12-06T12:41:39.718Z,12.97
2018-12-06T12:44:08.790Z,12.17
2018-12-06T12:46:37.704Z,15.03
2018-12-06T12:49:10.323Z,10.47
2018-12-06T12:51:41.114Z,14.53
2018-12-06T12:54:10.243Z,13.33
2018-12-06T12:56:39.205Z,14.98
2018-12-06T12:59:08.738Z,11.27
2018-12-06T13:01:39.104Z,13.37
2018-12-06T13:04:10.084Z,15.03
2018-12-06T13:06:40.211Z,15.07
2018-12-06T13:09:10.670Z,10.63
2018-12-06T13:11:43.747Z,12.20
2018-12-06T13:14:12.738Z,11.37
2018-12-06T13:16:42.840Z,9.40
2018-12-06T13:19:11.758Z,9.83
2018-12-06T13:21:40.832Z,12.70
2018-12-06T13:24:10.934Z,8.13
2018-12-06T13:26:42.212Z,10.13
2018-12-06T13:29:11.178Z,10.60
2018-12-06T13:31:41.325Z,11.28
2018-12-06T13:34:11.788Z,10.33
2018-12-06T13:36:40.956Z,12.50
2018-12-06T13:39:09.947Z,9.67
2018-12-06T13:41:38.947Z,8.97
2018-12-06T13:44:07.823Z,10.53
2018-12-06T13:46:37.182Z,8.17
2018-12-06T13:49:06.179Z,11.13
2018-12-06T13:51:35.110Z,12.70
2018-12-06T13:54:04.185Z,9.17
2018-12-06T13:56:33.577Z,11.53
2018-12-06T13:59:02.480Z,13.23
2018-12-06T14:01:35.337Z,7.92
2018-12-06T14:04:04.619Z,6.10
2018-12-06T14:06:35.210Z,8.73
2018-12-06T14:09:06.614Z,5.67
2018-12-06T14:11:42.170Z,10.77
2018-12-06T14:14:12.732Z,10.13
2018-12-06T14:16:41.626Z,8.17
2018-12-06T14:19:10.941Z,11.18
2018-12-06T14:21:41.430Z,9.03
2018-12-06T14:24:11.712Z,9.80
2018-12-06T14:26:40.906Z,13.13
2018-12-06T14:29:09.824Z,15.50
2018-12-06T14:31:38.693Z,17.30
2018-12-06T14:34:07.699Z,9.07
2018-12-06T14:36:36.730Z,11.93
2018-12-06T14:39:08.242Z,10.93
2018-12-06T14:41:37.293Z,8.60
2018-12-06T14:44:07.336Z,12.43
2018-12-06T14:46:36.325Z,13.20
2018-12-06T14:49:07.099Z,14.50
2018-12-06T14:51:35.999Z,12.83
2018-12-06T14:54:10.124Z,7.73
2018-12-06T14:56:39.773Z,13.07
2018-12-06T14:59:08.722Z,12.20
2018-12-06T15:01:37.713Z,13.30
2018-12-06T15:04:06.641Z,14.93
2018-12-06T15:06:41.245Z,11.63
2018-12-06T15:09:10.375Z,16.47
2018-12-06T15:11:39.323Z,11.90
2018-12-06T15:14:10.650Z,10.93
2018-12-06T15:16:39.573Z,14.07
2018-12-06T15:19:08.442Z,17.17
2018-12-06T15:21:37.366Z,14.80
2018-12-06T15:24:07.178Z,14.33
2018-12-06T15:26:36.095Z,13.37
2018-12-06T15:29:05.196Z,12.83
2018-12-06T15:31:34.050Z,14.57
2018-12-06T15:34:02.931Z,12.03
2018-12-06T15:36:31.911Z,13.98
2018-12-06T15:39:01.238Z,10.97
2018-12-06T15:41:30.141Z,11.20
2018-12-06T15:43:59.123Z,21.03
2018-12-06T15:46:28.020Z,12.80
2018-12-06T15:48:58.289Z,11.63
2018-12-06T15:51:27.208Z,13.63
2018-12-06T15:53:56.111Z,11.57
2018-12-06T15:56:25.115Z,10.73
2018-12-06T15:58:53.987Z,11.93
2018-12-06T16:01:22.859Z,12.50
2018-12-06T16:03:51.672Z,9.03
2018-12-06T16:06:20.675Z,22.93
2018-12-06T16:08:50.472Z,8.30
2018-12-06T16:11:19.341Z,11.70
2018-12-06T16:15:57.442Z,10.82
2018-12-06T16:18:27.015Z,12.70
2018-12-06T16:20:55.981Z,9.80
2018-12-06T16:23:24.874Z,14.27
2018-12-06T16:25:54.546Z,11.40
2018-12-06T16:28:23.434Z,12.53
2018-12-06T16:30:52.460Z,10.43
2018-12-06T16:33:21.505Z,22.13
2018-12-06T16:35:51.988Z,10.23
2018-12-06T16:38:20.925Z,12.90
2018-12-06T16:40:49.929Z,15.28
2018-12-06T16:43:19.532Z,14.10
2018-12-06T16:45:49.423Z,11.63
2018-12-06T16:48:18.368Z,7.23
2018-12-06T16:50:50.171Z,10.23
2018-12-06T16:53:19.163Z,15.00
2018-12-06T16:55:48.328Z,8.90
2018-12-06T17:03:26.963Z,10.67
2018-12-06T17:05:56.434Z,8.33
2018-12-06T17:08:25.539Z,13.33
2018-12-06T17:10:54.797Z,9.05
2018-12-06T17:13:23.613Z,13.17
2018-12-06T17:20:57.014Z,8.90
2018-12-06T17:23:26.258Z,7.33
2018-12-06T17:25:55.236Z,8.50
2018-12-06T17:28:24.425Z,11.40
2018-12-06T17:30:55.108Z,11.63
2018-12-06T17:33:25.452Z,9.13
2018-12-06T17:35:56.216Z,11.37
2018-12-06T17:38:25.329Z,8.67
2018-12-06T17:40:55.330Z,11.60
2018-12-06T17:43:24.359Z,21.77
2018-12-06T17:45:53.546Z,9.97
2018-12-06T17:48:22.633Z,7.57
2018-12-06T17:50:56.576Z,8.73
2018-12-06T17:53:25.634Z,9.23
2018-12-06T17:56:14.967Z,8.30
2018-12-06T17:58:44.456Z,9.33
2018-12-06T18:01:16.233Z,11.47
2018-12-06T18:03:45.463Z,10.00
2018-12-06T18:06:15.895Z,7.27
2018-12-06T18:08:45.243Z,7.77
2018-12-06T18:11:14.452Z,8.90
2018-12-06T18:13:43.754Z,10.07
2018-12-06T18:16:19.550Z,7.53
2018-12-06T18:18:44.201Z,8.47
2018-12-06T18:21:13.179Z,9.23
2018-12-06T18:23:44.191Z,7.03
2018-12-06T18:26:13.428Z,10.70
2018-12-06T18:28:42.845Z,7.37
2018-12-06T18:31:11.885Z,7.47
2018-12-06T18:33:41.912Z,8.83
2018-12-06T18:36:10.896Z,9.03
2018-12-06T18:38:39.946Z,8.63
2018-12-06T18:41:09.185Z,9.35
2018-12-06T18:43:38.300Z,7.63
2018-12-06T18:46:08.326Z,8.70
2018-12-06T18:48:39.233Z,7.23
2018-12-06T18:51:09.916Z,8.10
2018-12-06T18:53:39.550Z,10.50
2018-12-06T18:56:10.021Z,7.80
2018-12-06T18:58:40.131Z,8.20
2018-12-06T19:01:10.247Z,7.90
2018-12-06T19:03:39.522Z,6.58
2018-12-06T19:06:09.567Z,8.37
2018-12-06T19:08:40.232Z,7.87
2018-12-06T19:11:11.239Z,7.70
2018-12-06T19:13:41.151Z,11.10
2018-12-06T19:16:11.965Z,7.80
2018-12-06T19:18:40.801Z,5.50
2018-12-06T19:21:09.732Z,8.58
2018-12-06T19:23:40.198Z,6.40
2018-12-06T19:26:09.983Z,5.67
2018-12-06T19:28:43.494Z,10.23
2018-12-06T19:31:16.613Z,9.68
2018-12-06T19:33:56.418Z,8.17
2018-12-06T19:36:25.414Z,6.90
2018-12-06T19:38:55.763Z,5.90
2018-12-06T19:41:26.799Z,6.93
2018-12-06T19:43:55.749Z,8.07
2018-12-06T19:46:24.806Z,7.03
2018-12-06T19:48:53.976Z,8.10
2018-12-06T19:51:22.920Z,6.93
2018-12-06T19:53:53.509Z,8.93
2018-12-06T19:56:23.511Z,7.10
2018-12-06T19:58:54.103Z,8.80
2018-12-06T20:01:24.172Z,7.47
2018-12-06T20:03:55.459Z,7.43
2018-12-06T20:06:24.408Z,10.83
2018-12-06T20:08:54.441Z,10.83
2018-12-06T20:11:27.287Z,8.63
2018-12-06T20:13:57.540Z,6.40
2018-12-06T20:16:28.867Z,9.97
2018-12-06T20:18:57.781Z,8.03
2018-12-06T20:21:26.751Z,8.53
2018-12-06T20:23:55.658Z,6.97
2018-12-06T20:26:25.685Z,9.50
2018-12-06T20:28:54.741Z,10.60
2018-12-06T20:31:28.797Z,8.17
2018-12-06T20:33:57.791Z,8.60
2018-12-06T20:36:30.788Z,8.23
2018-12-06T20:39:00.775Z,10.90
2018-12-06T20:41:29.967Z,9.43
2018-12-06T20:44:00.215Z,8.10
2018-12-06T20:46:29.091Z,9.70
2018-12-06T20:48:58.425Z,9.63
2018-12-06T20:51:27.548Z,9.83
2018-12-06T20:53:56.531Z,10.23
2018-12-06T20:56:25.529Z,9.20
2018-12-06T20:58:54.885Z,9.90
2018-12-06T21:01:23.898Z,9.50
2018-12-06T21:03:53.391Z,8.97
2018-12-06T21:06:23.516Z,8.98
2018-12-06T21:08:54.685Z,10.97
2018-12-06T21:11:25.643Z,10.37
2018-12-06T21:13:54.705Z,11.63
2018-12-06T21:16:25.380Z,13.90
2018-12-06T21:18:54.672Z,10.83
2018-12-06T21:21:23.580Z,9.80
2018-12-06T21:23:54.721Z,10.40
2018-12-06T21:26:26.456Z,12.13
2018-12-06T21:28:55.562Z,9.53
2018-12-06T21:31:24.806Z,11.70
2018-12-06T21:33:53.828Z,14.05
2018-12-06T21:36:22.882Z,10.93
2018-12-06T21:38:53.916Z,9.95
2018-12-06T21:41:22.798Z,11.10
2018-12-06T21:43:51.762Z,13.97
2018-12-06T21:46:20.842Z,8.60
2018-12-06T21:48:49.958Z,8.53
2018-12-06T21:51:20.043Z,11.77
2018-12-06T21:53:49.056Z,9.80
2018-12-06T21:56:18.344Z,13.13
2018-12-06T21:58:47.353Z,10.93
2018-12-06T22:01:16.368Z,9.93
2018-12-06T22:03:45.541Z,10.77
2018-12-06T22:11:21.230Z,13.37
2018-12-06T22:13:50.211Z,9.13
2018-12-06T22:16:19.164Z,12.63
2018-12-06T22:18:50.095Z,9.23
2018-12-06T22:21:19.095Z,9.60
2018-12-06T22:23:48.102Z,9.03
2018-12-06T22:26:17.099Z,8.93
2018-12-06T22:28:46.057Z,7.58
2018-12-06T22:31:15.258Z,6.80
2018-12-06T22:33:44.438Z,7.80
2018-12-06T22:36:13.335Z,6.77
2018-12-06T22:38:42.282Z,6.00
2018-12-06T22:41:12.231Z,7.17
2018-12-06T22:43:41.320Z,6.63
2018-12-06T22:46:10.279Z,7.60
2018-12-06T22:48:39.305Z,5.83
2018-12-06T22:51:08.263Z,4.67
2018-12-06T22:53:37.342Z,5.37
2018-12-06T22:56:06.332Z,5.07
2018-12-06T22:58:35.431Z,5.60
2018-12-06T23:01:06.931Z,4.53
2018-12-06T23:03:37.949Z,4.63
2018-12-06T23:11:13.139Z,4.73
2018-12-06T23:13:43.131Z,6.07
2018-12-06T23:18:55.359Z,4.97
2018-12-06T23:21:24.433Z,5.33
2018-12-06T23:23:54.316Z,4.17
2018-12-06T23:26:24.271Z,4.40
2018-12-06T23:28:53.293Z,4.40
2018-12-06T23:31:22.316Z,4.50
2018-12-06T23:33:51.227Z,4.03
2018-12-06T23:36:20.095Z,3.93
2018-12-06T23:38:49.009Z,3.50
2018-12-06T23:41:17.942Z,4.30
2018-12-06T23:43:46.979Z,5.80
2018-12-06T23:46:15.837Z,4.67
2018-12-06T23:48:45.542Z,5.30
2018-12-06T23:51:25.772Z,4.20
2018-12-06T23:53:54.713Z,3.65
2018-12-06T23:56:23.601Z,3.23
2018-12-06T23:58:52.563Z,3.53
